sensor_id;sensor_type;location;lat;lon;timestamp;pressure;altitude;pressure_sealevel;temperature;humidity
18678;BME280;9469;51.114;13.914;2022-10-31T00:04:27;99184.78;;;12.38;100.00
18678;BME280;9469;51.114;13.914;2022-10-31T00:09:35;99186.50;;;12.20;100.00
18678;BME280;9469;51.114;13.914;2022-10-31T00:14:40;99185.78;;;12.15;100.00
18678;BME280;9469;51.114;13.914;2022-10-31T00:19:44;99192.91;;;12.19;100.00
18678;BME280;9469;51.114;13.914;2022-10-31T00:24:52;99187.59;;;11.92;100.00
18678;BME280;9469;51.114;13.914;2022-10-31T00:29:57;99189.19;;;11.93;100.00
18678;BME280;9469;51.114;13.914;2022-10-31T00:35:02;99195.69;;;11.87;100.00
18678;BME280;9469;51.114;13.914;2022-10-31T00:40:12;99194.47;;;11.66;100.00
18678;BME280;9469;51.114;13.914;2022-10-31T00:45:17;99191.91;;;11.61;100.00
18678;BME280;9469;51.114;13.914;2022-10-31T00:50:21;99198.31;;;11.46;100.00
18678;BME280;9469;51.114;13.914;2022-10-31T00:55:29;99206.06;;;11.43;100.00
18678;BME280;9469;51.114;13.914;2022-10-31T01:00:34;99198.09;;;11.43;100.00
18678;BME280;9469;51.114;13.914;2022-10-31T01:05:40;99198.16;;;11.38;100.00
18678;BME280;9469;51.114;13.914;2022-10-31T01:11:04;99202.75;;;11.51;100.00
18678;BME280;9469;51.114;13.914;2022-10-31T01:16:12;99206.53;;;11.31;100.00
18678;BME280;9469;51.114;13.914;2022-10-31T01:21:19;99204.75;;;11.27;100.00
18678;BME280;9469;51.114;13.914;2022-10-31T01:26:28;99204.25;;;11.25;100.00
18678;BME280;9469;51.114;13.914;2022-10-31T01:31:35;99208.28;;;11.22;100.00
18678;BME280;9469;51.114;13.914;2022-10-31T01:36:41;99197.09;;;11.07;100.00
18678;BME280;9469;51.114;13.914;2022-10-31T01:41:51;99201.72;;;11.01;100.00
18678;BME280;9469;51.114;13.914;2022-10-31T01:46:59;99195.91;;;11.13;100.00
18678;BME280;9469;51.114;13.914;2022-10-31T01:52:11;99205.38;;;11.05;100.00
18678;BME280;9469;51.114;13.914;2022-10-31T01:57:20;99202.00;;;11.00;100.00
18678;BME280;9469;51.114;13.914;2022-10-31T02:02:27;99198.09;;;11.11;100.00
18678;BME280;9469;51.114;13.914;2022-10-31T02:07:40;99201.50;;;10.98;100.00
18678;BME280;9469;51.114;13.914;2022-10-31T02:12:50;99201.88;;;10.91;100.00
18678;BME280;9469;51.114;13.914;2022-10-31T02:17:56;99210.78;;;10.81;100.00
18678;BME280;9469;51.114;13.914;2022-10-31T02:23:26;99207.63;;;10.79;100.00
18678;BME280;9469;51.114;13.914;2022-10-31T02:28:58;99211.38;;;10.78;100.00
18678;BME280;9469;51.114;13.914;2022-10-31T02:34:18;99209.28;;;10.38;100.00
18678;BME280;9469;51.114;13.914;2022-10-31T02:39:26;99216.56;;;10.51;100.00
18678;BME280;9469;51.114;13.914;2022-10-31T02:44:38;99213.09;;;10.32;100.00
18678;BME280;9469;51.114;13.914;2022-10-31T02:49:51;99210.22;;;10.29;100.00
18678;BME280;9469;51.114;13.914;2022-10-31T02:54:58;99223.31;;;10.44;100.00
18678;BME280;9469;51.114;13.914;2022-10-31T03:00:05;99218.75;;;10.26;100.00
18678;BME280;9469;51.114;13.914;2022-10-31T03:05:32;99226.75;;;10.44;100.00
18678;BME280;9469;51.114;13.914;2022-10-31T03:10:45;99235.00;;;10.24;100.00
18678;BME280;9469;51.114;13.914;2022-10-31T03:15:56;99233.53;;;10.13;100.00
18678;BME280;9469;51.114;13.914;2022-10-31T03:21:10;99226.63;;;10.12;100.00
18678;BME280;9469;51.114;13.914;2022-10-31T03:26:17;99232.22;;;10.10;100.00
18678;BME280;9469;51.114;13.914;2022-10-31T03:31:27;99234.59;;;10.12;100.00
18678;BME280;9469;51.114;13.914;2022-10-31T03:36:38;99239.69;;;10.08;100.00
18678;BME280;9469;51.114;13.914;2022-10-31T03:41:49;99240.00;;;10.02;100.00
18678;BME280;9469;51.114;13.914;2022-10-31T03:46:55;99241.38;;;9.99;100.00
18678;BME280;9469;51.114;13.914;2022-10-31T03:52:11;99246.69;;;9.99;100.00
18678;BME280;9469;51.114;13.914;2022-10-31T03:57:24;99245.31;;;10.02;100.00
18678;BME280;9469;51.114;13.914;2022-10-31T04:02:34;99253.28;;;9.78;100.00
18678;BME280;9469;51.114;13.914;2022-10-31T04:07:47;99253.31;;;9.73;100.00
18678;BME280;9469;51.114;13.914;2022-10-31T04:12:59;99246.97;;;9.74;100.00
18678;BME280;9469;51.114;13.914;2022-10-31T04:18:16;99254.75;;;9.89;100.00
18678;BME280;9469;51.114;13.914;2022-10-31T04:23:26;99249.84;;;9.78;100.00
18678;BME280;9469;51.114;13.914;2022-10-31T04:28:31;99254.97;;;9.69;100.00
18678;BME280;9469;51.114;13.914;2022-10-31T04:33:36;99256.94;;;9.59;100.00
18678;BME280;9469;51.114;13.914;2022-10-31T04:38:44;99253.66;;;9.67;100.00
18678;BME280;9469;51.114;13.914;2022-10-31T04:44:09;99265.31;;;9.71;100.00
18678;BME280;9469;51.114;13.914;2022-10-31T04:49:14;99248.53;;;9.47;100.00
18678;BME280;9469;51.114;13.914;2022-10-31T04:54:22;99261.53;;;9.48;100.00
18678;BME280;9469;51.114;13.914;2022-10-31T04:59:49;99266.13;;;9.37;100.00
18678;BME280;9469;51.114;13.914;2022-10-31T05:04:57;99269.38;;;9.29;100.00
18678;BME280;9469;51.114;13.914;2022-10-31T05:10:05;99267.84;;;9.23;100.00
18678;BME280;9469;51.114;13.914;2022-10-31T05:15:13;99270.34;;;9.44;100.00
18678;BME280;9469;51.114;13.914;2022-10-31T05:20:50;99264.63;;;9.26;100.00
18678;BME280;9469;51.114;13.914;2022-10-31T05:26:21;99266.31;;;9.17;100.00
18678;BME280;9469;51.114;13.914;2022-10-31T05:31:27;99274.31;;;9.07;100.00
18678;BME280;9469;51.114;13.914;2022-10-31T05:36:33;99264.47;;;9.13;100.00
18678;BME280;9469;51.114;13.914;2022-10-31T05:41:47;99283.31;;;9.11;100.00
18678;BME280;9469;51.114;13.914;2022-10-31T05:46:59;99276.66;;;9.14;100.00
18678;BME280;9469;51.114;13.914;2022-10-31T05:52:23;99273.19;;;9.18;100.00
18678;BME280;9469;51.114;13.914;2022-10-31T05:57:41;99279.78;;;9.26;100.00
18678;BME280;9469;51.114;13.914;2022-10-31T06:02:46;99285.44;;;9.14;100.00
18678;BME280;9469;51.114;13.914;2022-10-31T06:08:11;99300.91;;;9.02;100.00
18678;BME280;9469;51.114;13.914;2022-10-31T06:13:21;99293.59;;;8.84;100.00
18678;BME280;9469;51.114;13.914;2022-10-31T06:18:40;99300.34;;;9.05;100.00
18678;BME280;9469;51.114;13.914;2022-10-31T06:23:46;99305.34;;;9.12;100.00
18678;BME280;9469;51.114;13.914;2022-10-31T06:29:20;99322.47;;;9.29;100.00
18678;BME280;9469;51.114;13.914;2022-10-31T06:34:35;99325.13;;;9.29;100.00
18678;BME280;9469;51.114;13.914;2022-10-31T06:39:40;99321.66;;;9.34;100.00
18678;BME280;9469;51.114;13.914;2022-10-31T06:44:54;99331.44;;;9.38;100.00
18678;BME280;9469;51.114;13.914;2022-10-31T06:50:22;99328.50;;;9.74;100.00
18678;BME280;9469;51.114;13.914;2022-10-31T06:55:27;99341.59;;;9.65;100.00
18678;BME280;9469;51.114;13.914;2022-10-31T07:00:37;99345.16;;;9.84;100.00
18678;BME280;9469;51.114;13.914;2022-10-31T07:05:42;99349.38;;;9.90;100.00
18678;BME280;9469;51.114;13.914;2022-10-31T07:10:52;99345.53;;;10.01;100.00
18678;BME280;9469;51.114;13.914;2022-10-31T07:16:06;99352.75;;;10.25;100.00
18678;BME280;9469;51.114;13.914;2022-10-31T07:21:20;99360.88;;;10.38;100.00
18678;BME280;9469;51.114;13.914;2022-10-31T07:26:25;99353.34;;;10.45;100.00
18678;BME280;9469;51.114;13.914;2022-10-31T07:31:34;99354.91;;;10.70;100.00
18678;BME280;9469;51.114;13.914;2022-10-31T07:36:45;99352.09;;;10.85;100.00
18678;BME280;9469;51.114;13.914;2022-10-31T07:41:51;99352.44;;;11.16;100.00
18678;BME280;9469;51.114;13.914;2022-10-31T07:46:58;99362.53;;;11.37;100.00
18678;BME280;9469;51.114;13.914;2022-10-31T07:52:22;99360.25;;;11.63;100.00
18678;BME280;9469;51.114;13.914;2022-10-31T07:57:57;99356.16;;;11.89;100.00
18678;BME280;9469;51.114;13.914;2022-10-31T08:03:07;99362.31;;;12.17;100.00
18678;BME280;9469;51.114;13.914;2022-10-31T08:08:31;99355.03;;;12.36;100.00
18678;BME280;9469;51.114;13.914;2022-10-31T08:13:41;99359.03;;;13.15;100.00
18678;BME280;9469;51.114;13.914;2022-10-31T08:18:52;99352.53;;;15.05;100.00
18678;BME280;9469;51.114;13.914;2022-10-31T08:24:01;99349.22;;;16.99;95.46
18678;BME280;9469;51.114;13.914;2022-10-31T08:29:07;99353.50;;;15.78;99.56
18678;BME280;9469;51.114;13.914;2022-10-31T08:34:19;99350.78;;;15.01;100.00
18678;BME280;9469;51.114;13.914;2022-10-31T08:39:43;99347.13;;;16.55;100.00
18678;BME280;9469;51.114;13.914;2022-10-31T08:44:49;99348.38;;;18.46;92.18
18678;BME280;9469;51.114;13.914;2022-10-31T08:49:59;99345.66;;;20.33;83.88
18678;BME280;9469;51.114;13.914;2022-10-31T08:55:05;99349.59;;;21.02;78.70
18678;BME280;9469;51.114;13.914;2022-10-31T09:00:29;99344.63;;;20.53;79.24
18678;BME280;9469;51.114;13.914;2022-10-31T09:05:42;99343.47;;;21.20;77.74
18678;BME280;9469;51.114;13.914;2022-10-31T09:10:49;99330.44;;;22.51;71.38
18678;BME280;9469;51.114;13.914;2022-10-31T09:16:11;99342.25;;;22.40;71.68
18678;BME280;9469;51.114;13.914;2022-10-31T09:21:18;99339.38;;;24.37;66.36
18678;BME280;9469;51.114;13.914;2022-10-31T09:26:23;99341.03;;;25.07;63.66
18678;BME280;9469;51.114;13.914;2022-10-31T09:31:49;99344.31;;;25.37;61.83
18678;BME280;9469;51.114;13.914;2022-10-31T09:37:07;99340.00;;;23.83;64.96
18678;BME280;9469;51.114;13.914;2022-10-31T09:48:03;99348.59;;;23.26;68.10
18678;BME280;9469;51.114;13.914;2022-10-31T09:53:25;99346.06;;;22.12;73.58
18678;BME280;9469;51.114;13.914;2022-10-31T09:58:38;99339.91;;;23.76;68.36
18678;BME280;9469;51.114;13.914;2022-10-31T10:03:46;99347.50;;;23.97;68.61
18678;BME280;9469;51.114;13.914;2022-10-31T10:09:24;99336.16;;;23.25;69.70
18678;BME280;9469;51.114;13.914;2022-10-31T10:15:16;99337.28;;;23.20;69.99
18678;BME280;9469;51.114;13.914;2022-10-31T10:20:31;99338.69;;;23.37;69.33
18678;BME280;9469;51.114;13.914;2022-10-31T10:25:46;99328.59;;;23.37;69.95
18678;BME280;9469;51.114;13.914;2022-10-31T10:30:57;99327.91;;;22.39;73.71
18678;BME280;9469;51.114;13.914;2022-10-31T10:36:08;99326.91;;;21.83;74.55
18678;BME280;9469;51.114;13.914;2022-10-31T10:41:20;99316.59;;;23.09;72.07
18678;BME280;9469;51.114;13.914;2022-10-31T10:46:41;99315.75;;;21.65;75.06
18678;BME280;9469;51.114;13.914;2022-10-31T10:52:04;99312.06;;;21.73;75.52
18678;BME280;9469;51.114;13.914;2022-10-31T10:57:46;99309.03;;;21.97;74.58
18678;BME280;9469;51.114;13.914;2022-10-31T11:02:56;99307.22;;;21.44;77.05
18678;BME280;9469;51.114;13.914;2022-10-31T11:08:02;99299.31;;;23.53;70.01
18678;BME280;9469;51.114;13.914;2022-10-31T11:13:21;99298.53;;;22.19;73.78
18678;BME280;9469;51.114;13.914;2022-10-31T11:18:30;99294.69;;;21.55;76.66
18678;BME280;9469;51.114;13.914;2022-10-31T11:23:35;99298.91;;;21.94;75.23
18678;BME280;9469;51.114;13.914;2022-10-31T11:28:43;99276.78;;;22.38;74.38
18678;BME280;9469;51.114;13.914;2022-10-31T11:33:57;99278.72;;;23.52;70.20
18678;BME280;9469;51.114;13.914;2022-10-31T11:39:05;99275.84;;;22.27;74.77
18678;BME280;9469;51.114;13.914;2022-10-31T11:44:17;99267.38;;;23.80;70.40
18678;BME280;9469;51.114;13.914;2022-10-31T11:49:28;99260.72;;;24.14;67.66
18678;BME280;9469;51.114;13.914;2022-10-31T11:54:38;99264.78;;;22.61;74.79
18678;BME280;9469;51.114;13.914;2022-10-31T11:59:51;99255.38;;;23.44;71.17
18678;BME280;9469;51.114;13.914;2022-10-31T12:05:01;99245.13;;;24.62;65.78
18678;BME280;9469;51.114;13.914;2022-10-31T12:10:10;99255.03;;;22.87;72.13
18678;BME280;9469;51.114;13.914;2022-10-31T12:15:39;99231.34;;;23.87;68.86
18678;BME280;9469;51.114;13.914;2022-10-31T12:20:57;99233.69;;;23.48;69.98
18678;BME280;9469;51.114;13.914;2022-10-31T12:26:11;99242.72;;;22.63;73.28
18678;BME280;9469;51.114;13.914;2022-10-31T12:31:33;99227.53;;;23.51;70.42
18678;BME280;9469;51.114;13.914;2022-10-31T12:36:46;99223.25;;;23.94;68.65
18678;BME280;9469;51.114;13.914;2022-10-31T12:42:00;99214.09;;;23.69;70.69
18678;BME280;9469;51.114;13.914;2022-10-31T12:47:29;99216.03;;;24.73;67.40
18678;BME280;9469;51.114;13.914;2022-10-31T12:52:56;99210.00;;;24.36;66.10
18678;BME280;9469;51.114;13.914;2022-10-31T12:58:08;99208.81;;;24.34;68.21
18678;BME280;9469;51.114;13.914;2022-10-31T13:03:24;99209.50;;;24.78;66.56
18678;BME280;9469;51.114;13.914;2022-10-31T13:08:44;99193.97;;;24.17;67.70
18678;BME280;9469;51.114;13.914;2022-10-31T13:13:56;99187.09;;;24.37;67.11
18678;BME280;9469;51.114;13.914;2022-10-31T13:19:10;99191.97;;;24.10;67.47
18678;BME280;9469;51.114;13.914;2022-10-31T13:24:22;99192.38;;;24.16;68.97
18678;BME280;9469;51.114;13.914;2022-10-31T13:29:32;99178.28;;;22.82;72.49
18678;BME280;9469;51.114;13.914;2022-10-31T13:34:44;99168.97;;;22.54;74.27
18678;BME280;9469;51.114;13.914;2022-10-31T13:40:03;99176.19;;;22.43;73.42
18678;BME280;9469;51.114;13.914;2022-10-31T13:45:13;99166.63;;;22.52;74.23
18678;BME280;9469;51.114;13.914;2022-10-31T13:50:23;99174.41;;;22.28;75.08
18678;BME280;9469;51.114;13.914;2022-10-31T13:55:42;99158.41;;;23.08;72.87
18678;BME280;9469;51.114;13.914;2022-10-31T14:00:58;99164.28;;;22.51;74.97
18678;BME280;9469;51.114;13.914;2022-10-31T14:06:08;99168.44;;;22.15;74.81
18678;BME280;9469;51.114;13.914;2022-10-31T14:11:21;99155.84;;;22.86;71.41
18678;BME280;9469;51.114;13.914;2022-10-31T14:16:43;99159.78;;;22.06;74.23
18678;BME280;9469;51.114;13.914;2022-10-31T14:21:57;99146.28;;;21.83;73.07
18678;BME280;9469;51.114;13.914;2022-10-31T14:32:26;99136.91;;;21.55;75.26
18678;BME280;9469;51.114;13.914;2022-10-31T14:37:47;99139.91;;;21.27;76.37
18678;BME280;9469;51.114;13.914;2022-10-31T14:43:11;99135.94;;;21.21;78.10
18678;BME280;9469;51.114;13.914;2022-10-31T14:48:45;99127.97;;;20.90;80.91
18678;BME280;9469;51.114;13.914;2022-10-31T14:53:59;99124.88;;;20.68;82.51
18678;BME280;9469;51.114;13.914;2022-10-31T14:59:12;99115.34;;;20.55;84.04
18678;BME280;9469;51.114;13.914;2022-10-31T15:04:24;99119.22;;;20.39;84.43
18678;BME280;9469;51.114;13.914;2022-10-31T15:09:33;99112.13;;;20.31;86.25
18678;BME280;9469;51.114;13.914;2022-10-31T15:14:45;99103.56;;;19.94;88.20
18678;BME280;9469;51.114;13.914;2022-10-31T15:19:50;99107.09;;;19.63;90.04
18678;BME280;9469;51.114;13.914;2022-10-31T15:24:58;99090.03;;;19.44;91.63
18678;BME280;9469;51.114;13.914;2022-10-31T15:30:17;99093.13;;;19.14;93.88
18678;BME280;9469;51.114;13.914;2022-10-31T15:35:25;99094.94;;;18.95;95.25
18678;BME280;9469;51.114;13.914;2022-10-31T15:40:36;99094.53;;;18.65;96.68
18678;BME280;9469;51.114;13.914;2022-10-31T15:45:42;99087.13;;;18.22;99.88
18678;BME280;9469;51.114;13.914;2022-10-31T15:50:52;99076.75;;;17.97;100.00
18678;BME280;9469;51.114;13.914;2022-10-31T15:56:03;99078.06;;;18.03;100.00
18678;BME280;9469;51.114;13.914;2022-10-31T16:01:20;99081.13;;;17.89;100.00
18678;BME280;9469;51.114;13.914;2022-10-31T16:06:26;99072.06;;;17.69;100.00
18678;BME280;9469;51.114;13.914;2022-10-31T16:11:38;99065.09;;;17.44;100.00
18678;BME280;9469;51.114;13.914;2022-10-31T16:16:47;99067.31;;;17.30;100.00
18678;BME280;9469;51.114;13.914;2022-10-31T16:21:56;99068.63;;;17.00;100.00
18678;BME280;9469;51.114;13.914;2022-10-31T16:27:18;99058.34;;;17.02;100.00
18678;BME280;9469;51.114;13.914;2022-10-31T16:32:30;99068.69;;;17.36;100.00
18678;BME280;9469;51.114;13.914;2022-10-31T16:37:41;99064.44;;;17.71;99.72
18678;BME280;9469;51.114;13.914;2022-10-31T16:42:50;99075.66;;;17.61;99.04
18678;BME280;9469;51.114;13.914;2022-10-31T16:48:03;99071.81;;;16.81;100.00
18678;BME280;9469;51.114;13.914;2022-10-31T16:53:09;99075.75;;;16.51;100.00
18678;BME280;9469;51.114;13.914;2022-10-31T16:58:22;99066.91;;;16.09;100.00
18678;BME280;9469;51.114;13.914;2022-10-31T17:03:28;99066.03;;;16.17;100.00
18678;BME280;9469;51.114;13.914;2022-10-31T17:08:33;99064.16;;;16.38;100.00
18678;BME280;9469;51.114;13.914;2022-10-31T17:13:40;99066.03;;;16.59;100.00
18678;BME280;9469;51.114;13.914;2022-10-31T17:18:45;99061.81;;;16.16;100.00
18678;BME280;9469;51.114;13.914;2022-10-31T17:23:50;99063.81;;;15.78;100.00
18678;BME280;9469;51.114;13.914;2022-10-31T17:29:01;99052.69;;;15.88;100.00
18678;BME280;9469;51.114;13.914;2022-10-31T17:34:06;99053.66;;;15.84;100.00
18678;BME280;9469;51.114;13.914;2022-10-31T17:39:11;99049.34;;;15.91;100.00
18678;BME280;9469;51.114;13.914;2022-10-31T17:44:18;99032.00;;;15.68;100.00
18678;BME280;9469;51.114;13.914;2022-10-31T17:49:24;99038.50;;;15.21;100.00
18678;BME280;9469;51.114;13.914;2022-10-31T17:54:29;99036.22;;;15.40;100.00
18678;BME280;9469;51.114;13.914;2022-10-31T17:59:36;99034.81;;;15.42;100.00
18678;BME280;9469;51.114;13.914;2022-10-31T18:04:42;99032.44;;;15.41;100.00
18678;BME280;9469;51.114;13.914;2022-10-31T18:09:47;99029.19;;;15.27;100.00
18678;BME280;9469;51.114;13.914;2022-10-31T18:15:03;99017.97;;;14.95;100.00
18678;BME280;9469;51.114;13.914;2022-10-31T18:20:09;99021.50;;;15.17;100.00
18678;BME280;9469;51.114;13.914;2022-10-31T18:25:14;99015.63;;;15.61;100.00
18678;BME280;9469;51.114;13.914;2022-10-31T18:30:23;99027.63;;;15.84;100.00
18678;BME280;9469;51.114;13.914;2022-10-31T18:35:29;99021.91;;;15.65;100.00
18678;BME280;9469;51.114;13.914;2022-10-31T18:40:35;99017.50;;;15.31;100.00
18678;BME280;9469;51.114;13.914;2022-10-31T18:45:42;99014.84;;;15.23;100.00
18678;BME280;9469;51.114;13.914;2022-10-31T18:50:52;99003.22;;;15.19;100.00
18678;BME280;9469;51.114;13.914;2022-10-31T18:56:05;99006.53;;;15.16;100.00
18678;BME280;9469;51.114;13.914;2022-10-31T19:01:14;99007.19;;;15.50;100.00
18678;BME280;9469;51.114;13.914;2022-10-31T19:06:20;99002.31;;;15.15;100.00
18678;BME280;9469;51.114;13.914;2022-10-31T19:11:26;98998.91;;;14.88;100.00
18678;BME280;9469;51.114;13.914;2022-10-31T19:16:35;98994.34;;;14.43;100.00
18678;BME280;9469;51.114;13.914;2022-10-31T19:21:40;98988.03;;;14.47;100.00
18678;BME280;9469;51.114;13.914;2022-10-31T19:26:46;98985.19;;;14.44;100.00
18678;BME280;9469;51.114;13.914;2022-10-31T19:31:56;98978.44;;;14.38;100.00
18678;BME280;9469;51.114;13.914;2022-10-31T19:37:02;98980.63;;;14.27;100.00
18678;BME280;9469;51.114;13.914;2022-10-31T19:42:10;98989.28;;;14.41;100.00
18678;BME280;9469;51.114;13.914;2022-10-31T19:47:22;98983.00;;;14.28;100.00
18678;BME280;9469;51.114;13.914;2022-10-31T19:52:33;98974.03;;;14.16;100.00
18678;BME280;9469;51.114;13.914;2022-10-31T19:57:39;98968.06;;;14.02;100.00
18678;BME280;9469;51.114;13.914;2022-10-31T20:03:05;98960.81;;;14.11;100.00
18678;BME280;9469;51.114;13.914;2022-10-31T20:08:13;98966.16;;;14.02;100.00
18678;BME280;9469;51.114;13.914;2022-10-31T20:13:18;98960.66;;;13.99;100.00
18678;BME280;9469;51.114;13.914;2022-10-31T20:18:26;98956.75;;;13.88;100.00
18678;BME280;9469;51.114;13.914;2022-10-31T20:23:32;98944.47;;;13.78;100.00
18678;BME280;9469;51.114;13.914;2022-10-31T20:28:38;98933.94;;;13.64;100.00
18678;BME280;9469;51.114;13.914;2022-10-31T20:33:47;98930.94;;;13.66;100.00
18678;BME280;9469;51.114;13.914;2022-10-31T20:38:53;98926.38;;;13.66;100.00
18678;BME280;9469;51.114;13.914;2022-10-31T20:43:58;98938.00;;;14.05;100.00
18678;BME280;9469;51.114;13.914;2022-10-31T20:49:05;98942.69;;;14.25;100.00
18678;BME280;9469;51.114;13.914;2022-10-31T20:54:12;98936.63;;;13.82;100.00
18678;BME280;9469;51.114;13.914;2022-10-31T20:59:21;98937.09;;;13.84;100.00
18678;BME280;9469;51.114;13.914;2022-10-31T21:04:28;98919.47;;;13.65;100.00
18678;BME280;9469;51.114;13.914;2022-10-31T21:09:35;98914.13;;;13.74;100.00
18678;BME280;9469;51.114;13.914;2022-10-31T21:14:40;98897.63;;;13.72;100.00
18678;BME280;9469;51.114;13.914;2022-10-31T21:19:48;98900.59;;;13.62;100.00
18678;BME280;9469;51.114;13.914;2022-10-31T21:24:53;98908.78;;;13.74;100.00
18678;BME280;9469;51.114;13.914;2022-10-31T21:30:00;98901.38;;;13.62;100.00
18678;BME280;9469;51.114;13.914;2022-10-31T21:35:08;98900.94;;;13.52;100.00
18678;BME280;9469;51.114;13.914;2022-10-31T21:40:16;98888.03;;;13.62;100.00
18678;BME280;9469;51.114;13.914;2022-10-31T21:45:21;98892.91;;;13.86;100.00
18678;BME280;9469;51.114;13.914;2022-10-31T21:50:29;98882.03;;;14.00;100.00
18678;BME280;9469;51.114;13.914;2022-10-31T21:55:38;98868.78;;;14.03;100.00
18678;BME280;9469;51.114;13.914;2022-10-31T22:00:44;98858.88;;;14.04;100.00
18678;BME280;9469;51.114;13.914;2022-10-31T22:05:54;98851.94;;;14.03;100.00
18678;BME280;9469;51.114;13.914;2022-10-31T22:11:01;98846.59;;;14.03;100.00
18678;BME280;9469;51.114;13.914;2022-10-31T22:16:15;98836.88;;;13.90;100.00
18678;BME280;9469;51.114;13.914;2022-10-31T22:21:24;98837.50;;;13.87;100.00
18678;BME280;9469;51.114;13.914;2022-10-31T22:26:29;98831.22;;;14.00;100.00
18678;BME280;9469;51.114;13.914;2022-10-31T22:31:37;98829.75;;;14.11;100.00
18678;BME280;9469;51.114;13.914;2022-10-31T22:36:45;98822.66;;;14.15;100.00
18678;BME280;9469;51.114;13.914;2022-10-31T22:41:50;98827.50;;;14.30;100.00
18678;BME280;9469;51.114;13.914;2022-10-31T22:46:56;98822.63;;;14.23;100.00
18678;BME280;9469;51.114;13.914;2022-10-31T22:52:10;98818.69;;;14.21;100.00
18678;BME280;9469;51.114;13.914;2022-10-31T22:57:30;98809.63;;;14.13;100.00
18678;BME280;9469;51.114;13.914;2022-10-31T23:02:35;98796.25;;;14.05;100.00
18678;BME280;9469;51.114;13.914;2022-10-31T23:07:42;98790.59;;;14.06;100.00
18678;BME280;9469;51.114;13.914;2022-10-31T23:12:47;98794.03;;;14.15;100.00
18678;BME280;9469;51.114;13.914;2022-10-31T23:18:04;98775.88;;;14.21;100.00
18678;BME280;9469;51.114;13.914;2022-10-31T23:23:35;98785.97;;;14.24;100.00
18678;BME280;9469;51.114;13.914;2022-10-31T23:28:40;98770.53;;;14.21;100.00
18678;BME280;9469;51.114;13.914;2022-10-31T23:33:45;98761.13;;;14.15;100.00
18678;BME280;9469;51.114;13.914;2022-10-31T23:38:52;98754.06;;;14.10;100.00
18678;BME280;9469;51.114;13.914;2022-10-31T23:43:57;98747.81;;;14.06;100.00
18678;BME280;9469;51.114;13.914;2022-10-31T23:49:02;98741.19;;;14.04;100.00
18678;BME280;9469;51.114;13.914;2022-10-31T23:54:09;98733.81;;;14.01;100.00
18678;BME280;9469;51.114;13.914;2022-10-31T23:59:14;98731.47;;;13.99;100.00
